Time;durP1;ratioP1;P1;durP2;ratioP2;P2;SDS_P1;SDS_P2;PMS_P1;PMS_P2;Temp;Humidity;BMP_temperature;BMP_pressure;BME280_temperature;BME280_humidity;BME280_pressure;Samples;Min_cycle;Max_cycle;Signal;HPM_P1;HPM_P2
2022/10/08 00:01:11;;;;;;;22.70;20.43;;;;;;;14.46;100.00;96989.50;4996797;28;20286;-74
2022/10/08 00:03:40;;;;;;;23.47;21.47;;;;;;;14.41;100.00;96997.34;5014947;28;20178;-73
2022/10/08 00:06:19;;;;;;;22.50;20.33;;;;;;;14.49;100.00;96996.91;4987756;28;20199;-72
2022/10/08 00:08:51;;;;;;;21.77;19.77;;;;;;;14.45;100.00;96995.81;5009652;28;20635;-74
2022/10/08 00:11:20;;;;;;;20.73;18.80;;;;;;;14.43;100.00;96992.59;5014581;28;20183;-74
2022/10/08 00:13:47;;;;;;;22.17;20.20;;;;;;;14.42;100.00;96991.03;5005059;28;20664;-75
2022/10/08 00:16:14;;;;;;;19.47;16.43;;;;;;;14.41;100.00;96983.34;4995348;28;20188;-73
2022/10/08 00:18:40;;;;;;;19.73;17.63;;;;;;;14.40;100.00;96979.91;4994949;28;20648;-74
2022/10/08 00:21:18;;;;;;;22.33;18.77;;;;;;;14.37;100.00;96979.63;4994648;28;20210;-74
2022/10/08 00:23:45;;;;;;;22.87;20.77;;;;;;;14.32;100.00;96976.91;5000312;28;20182;-75
2022/10/08 00:26:11;;;;;;;24.50;22.10;;;;;;;14.18;100.00;96986.19;5014062;28;20207;-75
2022/10/08 00:28:40;;;;;;;23.97;21.70;;;;;;;14.13;100.00;96982.47;5014340;28;20644;-74
2022/10/08 00:31:11;;;;;;;27.13;24.73;;;;;;;14.22;100.00;96980.19;5013962;28;20190;-74
2022/10/08 00:33:37;;;;;;;26.00;23.70;;;;;;;14.14;100.00;96977.97;5007915;28;20183;-74
2022/10/08 00:36:04;;;;;;;28.50;25.83;;;;;;;14.16;100.00;96981.94;4994521;28;20263;-75
2022/10/08 00:38:30;;;;;;;28.03;25.53;;;;;;;14.13;100.00;96974.53;4994693;28;20187;-74
2022/10/08 00:40:56;;;;;;;28.20;25.70;;;;;;;14.12;100.00;96982.69;4994602;28;20195;-75
2022/10/08 00:43:43;;;;;;;28.93;26.50;;;;;;;14.12;100.00;96988.75;4998286;28;20191;-74
2022/10/08 00:46:30;;;;;;;28.93;26.20;;;;;;;14.11;100.00;96976.63;5000065;28;20233;-74
2022/10/08 00:49:05;;;;;;;26.97;24.63;;;;;;;14.02;100.00;96979.94;4994591;28;20187;-74
2022/10/08 00:51:32;;;;;;;25.40;23.10;;;;;;;14.01;100.00;96978.31;4994459;28;20206;-75
2022/10/08 00:54:01;;;;;;;27.10;24.60;;;;;;;13.96;100.00;96978.25;4994517;28;20187;-75
2022/10/08 00:56:30;;;;;;;23.93;21.73;;;;;;;13.98;100.00;96974.34;4994366;28;20184;-75
2022/10/08 00:58:56;;;;;;;22.80;20.47;;;;;;;13.92;100.00;96975.31;4994358;28;20681;-74
2022/10/08 01:01:21;;;;;;;22.40;20.70;;;;;;;14.00;100.00;96969.63;5007368;28;20684;-74
2022/10/08 01:03:47;;;;;;;22.60;20.43;;;;;;;14.02;100.00;96974.66;4995239;28;20173;-75
2022/10/08 01:06:16;;;;;;;24.53;22.20;;;;;;;13.92;100.00;96969.25;5004351;28;20547;-74
2022/10/08 01:08:50;;;;;;;22.60;20.80;;;;;;;13.90;100.00;96976.59;5013672;28;20180;-75
2022/10/08 01:11:30;;;;;;;23.80;21.70;;;;;;;13.95;100.00;96974.03;4995235;28;20645;-74
2022/10/08 01:14:02;;;;;;;24.60;22.10;;;;;;;13.96;100.00;96973.00;4993645;28;20575;-74
2022/10/08 01:17:12;;;;;;;24.37;22.10;;;;;;;13.80;100.00;96961.44;4976773;28;20597;-74
2022/10/08 01:19:56;;;;;;;23.70;21.43;;;;;;;13.79;100.00;96969.59;4985509;28;20207;-74
2022/10/08 01:22:34;;;;;;;23.53;20.73;;;;;;;13.78;100.00;96968.78;4998121;28;20226;-75
2022/10/08 01:25:31;;;;;;;23.77;21.47;;;;;;;13.89;100.00;96965.25;4994103;28;20175;-74
2022/10/08 01:28:07;;;;;;;23.17;21.03;;;;;;;13.95;100.00;96960.84;4993931;28;20184;-74
2022/10/08 01:30:36;;;;;;;23.70;21.70;;;;;;;13.97;100.00;96959.56;4984832;28;20285;-74
2022/10/08 01:33:11;;;;;;;26.27;24.00;;;;;;;14.09;100.00;96962.09;5007708;28;20530;-74
2022/10/08 01:35:43;;;;;;;26.60;24.40;;;;;;;14.07;100.00;96956.28;4993639;28;20203;-74
2022/10/08 01:38:14;;;;;;;26.10;23.90;;;;;;;14.02;100.00;96959.66;4993895;28;20184;-75
2022/10/08 01:40:42;;;;;;;25.60;23.20;;;;;;;14.01;100.00;96952.78;4996787;28;20227;-74
2022/10/08 01:43:12;;;;;;;25.87;23.10;;;;;;;13.95;100.00;96958.22;4993856;28;20641;-74
2022/10/08 01:45:42;;;;;;;24.20;22.07;;;;;;;13.89;100.00;96959.19;4993690;28;20231;-75
2022/10/08 01:48:13;;;;;;;26.30;23.77;;;;;;;13.91;100.00;96963.19;5004981;28;20194;-73
2022/10/08 01:51:12;;;;;;;24.40;22.20;;;;;;;13.94;100.00;96962.69;4998895;28;20183;-75
2022/10/08 01:53:40;;;;;;;25.53;22.77;;;;;;;13.99;100.00;96959.31;4993655;28;20230;-74
2022/10/08 01:56:11;;;;;;;24.53;22.20;;;;;;;13.95;100.00;96951.09;4993595;28;20188;-75
2022/10/08 01:58:42;;;;;;;24.53;22.00;;;;;;;13.89;100.00;96951.28;5007160;28;20207;-74
2022/10/08 02:01:14;;;;;;;21.23;19.30;;;;;;;13.84;100.00;96957.28;4995132;28;20293;-74
2022/10/08 02:04:31;;;;;;;23.47;21.43;;;;;;;13.82;100.00;96950.66;5013205;28;20585;-72
2022/10/08 02:06:27;;;;;;;21.70;19.90;;;;;;;13.81;100.00;96941.16;5000964;28;20235;-72
2022/10/08 02:08:53;;;;;;;24.20;21.97;;;;;;;13.86;100.00;96942.03;5008603;28;20663;-73
2022/10/08 02:11:19;;;;;;;21.97;19.67;;;;;;;14.00;100.00;96945.91;5010587;28;20187;-73
2022/10/08 02:13:45;;;;;;;20.13;18.40;;;;;;;13.96;100.00;96949.28;5007111;28;20200;-72
2022/10/08 02:16:17;;;;;;;20.57;18.47;;;;;;;14.04;100.00;96944.38;4993693;28;20184;-72
2022/10/08 02:18:56;;;;;;;20.23;18.53;;;;;;;13.98;100.00;96945.38;4997529;28;20267;-73
2022/10/08 02:21:25;;;;;;;20.53;18.60;;;;;;;14.06;100.00;96941.50;5011381;28;20423;-72
2022/10/08 02:24:10;;;;;;;21.63;19.33;;;;;;;14.09;100.00;96935.75;5012556;28;20266;-72
2022/10/08 02:26:43;;;;;;;20.00;18.07;;;;;;;14.04;100.00;96936.47;5012733;28;20323;-72
2022/10/08 02:29:21;;;;;;;23.23;21.10;;;;;;;14.10;100.00;96939.94;4996641;28;20184;-73
2022/10/08 02:31:58;;;;;;;24.23;21.50;;;;;;;13.96;100.00;96931.63;5011089;28;20270;-73
2022/10/08 02:34:33;;;;;;;23.63;21.70;;;;;;;13.99;100.00;96935.59;4997152;28;20184;-72
2022/10/08 02:37:02;;;;;;;22.83;20.57;;;;;;;14.06;100.00;96931.75;4997284;28;20756;-72
2022/10/08 02:39:32;;;;;;;19.97;18.17;;;;;;;14.04;100.00;96940.97;4999314;28;20196;-72
2022/10/08 02:42:04;;;;;;;21.30;19.40;;;;;;;14.02;100.00;96935.91;5016000;28;20235;-71
2022/10/08 02:44:45;;;;;;;22.07;20.20;;;;;;;14.06;100.00;96939.66;5010327;28;20229;-71
2022/10/08 02:47:15;;;;;;;24.60;22.37;;;;;;;13.97;100.00;96940.34;4997015;28;20179;-73
2022/10/08 02:49:46;;;;;;;24.63;22.50;;;;;;;13.92;100.00;96940.28;4985191;28;20687;-73
2022/10/08 02:52:13;;;;;;;22.93;20.83;;;;;;;13.94;100.00;96948.72;4999534;28;20183;-73
2022/10/08 02:54:42;;;;;;;24.83;22.43;;;;;;;13.87;100.00;96943.63;4996699;28;20187;-73
2022/10/08 02:57:17;;;;;;;22.07;20.17;;;;;;;13.84;100.00;96943.31;4996638;28;20649;-73
2022/10/08 02:59:44;;;;;;;22.83;20.50;;;;;;;13.93;100.00;96944.50;4997557;28;20171;-73
2022/10/08 03:02:14;;;;;;;20.90;18.80;;;;;;;13.85;100.00;96940.44;4996417;28;20583;-73
2022/10/08 03:05:02;;;;;;;20.27;17.30;;;;;;;13.82;100.00;96946.19;4998060;28;20181;-73
2022/10/08 03:07:32;;;;;;;20.27;18.13;;;;;;;13.81;100.00;96952.50;4996674;28;20184;-73
2022/10/08 03:10:01;;;;;;;19.87;17.97;;;;;;;13.79;100.00;96944.03;4998705;28;20258;-73
2022/10/08 03:12:29;;;;;;;20.90;18.87;;;;;;;13.90;100.00;96952.88;4997453;28;20241;-73
2022/10/08 03:14:54;;;;;;;20.00;17.93;;;;;;;13.76;100.00;96947.19;5014504;28;20274;-73
2022/10/08 03:17:29;;;;;;;20.73;18.90;;;;;;;13.76;100.00;96954.28;5005017;28;20666;-73
2022/10/08 03:19:55;;;;;;;21.37;19.17;;;;;;;13.75;100.00;96950.84;5008224;28;20225;-73
2022/10/08 03:22:21;;;;;;;21.20;19.53;;;;;;;13.71;100.00;96950.50;4996485;28;20238;-73
2022/10/08 03:24:47;;;;;;;18.37;16.77;;;;;;;13.73;100.00;96951.06;4995833;28;20187;-72
2022/10/08 03:27:12;;;;;;;21.67;19.77;;;;;;;13.68;100.00;96953.63;4996257;28;20188;-73
2022/10/08 03:29:37;;;;;;;20.80;18.90;;;;;;;13.63;100.00;96960.66;4995776;28;20184;-73
2022/10/08 03:32:03;;;;;;;21.47;19.53;;;;;;;13.68;100.00;96964.19;5013704;28;20636;-73
2022/10/08 03:34:28;;;;;;;20.30;18.70;;;;;;;13.74;100.00;96959.78;4997280;28;20183;-73
2022/10/08 03:36:54;;;;;;;26.00;16.70;;;;;;;13.79;100.00;96959.03;5009925;28;20180;-72
2022/10/08 03:39:19;;;;;;;20.27;18.10;;;;;;;13.97;100.00;96964.84;4995843;28;20644;-73
2022/10/08 03:41:44;;;;;;;23.53;21.40;;;;;;;14.00;100.00;96969.63;5010393;28;20651;-73
2022/10/08 03:44:11;;;;;;;21.70;19.97;;;;;;;13.96;100.00;96970.34;4993641;28;20663;-73
2022/10/08 03:46:37;;;;;;;19.70;18.10;;;;;;;14.04;100.00;96976.00;4996495;28;20267;-72
2022/10/08 03:49:02;;;;;;;18.93;17.00;;;;;;;14.07;100.00;96974.72;4995685;28;20262;-73
2022/10/08 03:51:27;;;;;;;19.40;17.13;;;;;;;14.14;100.00;96981.41;5005412;28;20279;-73
2022/10/08 03:53:53;;;;;;;17.77;15.70;;;;;;;14.18;100.00;96979.09;5014225;28;20187;-73
2022/10/08 03:56:23;;;;;;;18.23;16.23;;;;;;;14.19;100.00;96978.03;5003538;28;20656;-72
2022/10/08 03:58:55;;;;;;;16.80;15.10;;;;;;;14.14;100.00;96978.78;4995518;28;20172;-73
2022/10/08 04:01:21;;;;;;;14.13;12.63;;;;;;;14.21;100.00;96985.72;4987948;28;20275;-73
2022/10/08 04:03:46;;;;;;;15.70;13.07;;;;;;;14.27;100.00;96984.72;4995259;28;20275;-73
2022/10/08 04:06:12;;;;;;;16.20;12.90;;;;;;;14.25;100.00;96989.44;5005337;28;20183;-73
2022/10/08 04:08:37;;;;;;;12.33;11.17;;;;;;;14.25;100.00;96994.72;5014408;28;20560;-73
2022/10/08 04:11:04;;;;;;;16.47;11.97;;;;;;;14.15;100.00;96996.16;5014021;28;20544;-73
2022/10/08 04:13:30;;;;;;;14.13;12.30;;;;;;;14.12;100.00;96998.50;5006114;28;20242;-73
2022/10/08 04:16:17;;;;;;;13.03;11.73;;;;;;;14.05;100.00;97003.94;5002127;28;20187;-74
2022/10/08 04:18:43;;;;;;;15.70;11.10;;;;;;;13.95;100.00;97000.38;4996950;28;20199;-73
2022/10/08 04:21:11;;;;;;;14.17;12.73;;;;;;;13.97;100.00;96995.66;5011680;28;20274;-73
2022/10/08 04:23:38;;;;;;;15.10;11.63;;;;;;;13.91;100.00;97000.06;5013799;28;20547;-73
2022/10/08 04:26:05;;;;;;;14.17;12.10;;;;;;;13.96;100.00;97002.78;5005024;28;20184;-74
2022/10/08 04:28:30;;;;;;;13.37;12.07;;;;;;;13.90;100.00;97000.31;4994988;28;20327;-73
2022/10/08 04:30:56;;;;;;;17.13;15.43;;;;;;;13.91;100.00;97015.09;5010354;28;20597;-73
2022/10/08 04:33:22;;;;;;;21.30;18.20;;;;;;;13.76;100.00;97010.41;5011484;28;20551;-73
2022/10/08 04:35:47;;;;;;;20.67;18.83;;;;;;;13.76;100.00;97007.75;5014054;28;20187;-73
2022/10/08 04:38:13;;;;;;;21.00;18.97;;;;;;;13.84;100.00;97017.06;5014104;28;20190;-73
2022/10/08 04:40:38;;;;;;;18.57;16.77;;;;;;;13.92;100.00;97012.22;4996338;28;20285;-73
2022/10/08 04:43:04;;;;;;;17.13;15.70;;;;;;;13.82;100.00;97013.91;4997822;28;20657;-74
2022/10/08 04:45:29;;;;;;;20.13;16.50;;;;;;;13.90;100.00;97005.56;4994565;28;20234;-74
2022/10/08 04:47:54;;;;;;;20.33;15.73;;;;;;;13.87;100.00;97012.16;4994290;28;20188;-74
2022/10/08 04:50:20;;;;;;;15.53;14.13;;;;;;;13.84;100.00;97002.06;4994216;28;20289;-74
2022/10/08 04:52:45;;;;;;;23.37;17.37;;;;;;;13.92;100.00;97006.94;5002337;28;20180;-74
2022/10/08 04:55:10;;;;;;;16.07;14.57;;;;;;;13.86;100.00;97013.19;5013289;28;20271;-74
2022/10/08 04:57:36;;;;;;;16.23;14.93;;;;;;;13.86;100.00;97021.09;5013458;28;20186;-74
2022/10/08 05:00:03;;;;;;;16.60;14.87;;;;;;;13.77;100.00;97030.41;5013991;28;20215;-74
2022/10/08 05:02:29;;;;;;;17.53;15.93;;;;;;;13.91;100.00;97023.78;5002637;28;20195;-74
2022/10/08 05:04:54;;;;;;;17.57;15.87;;;;;;;13.92;100.00;97032.50;5009649;28;20183;-74
2022/10/08 05:07:19;;;;;;;16.30;14.77;;;;;;;13.94;100.00;97028.56;5013263;28;20652;-74
2022/10/08 05:09:45;;;;;;;15.03;13.50;;;;;;;13.91;100.00;97023.78;5013298;28;20675;-74
2022/10/08 05:12:10;;;;;;;15.63;14.50;;;;;;;13.84;100.00;97046.06;5005798;28;20226;-74
2022/10/08 05:14:36;;;;;;;14.73;13.60;;;;;;;13.94;100.00;97039.09;4993798;28;20188;-74
2022/10/08 05:17:01;;;;;;;16.23;14.63;;;;;;;13.84;100.00;97043.44;4993739;28;20191;-74
2022/10/08 05:19:27;;;;;;;16.77;15.33;;;;;;;13.72;100.00;97046.94;4995063;28;20191;-74
2022/10/08 05:21:52;;;;;;;21.97;20.20;;;;;;;13.83;100.00;97037.34;4998732;28;20218;-74
2022/10/08 05:24:17;;;;;;;23.70;21.57;;;;;;;13.64;100.00;97039.47;5000858;28;20190;-74
2022/10/08 05:26:43;;;;;;;21.60;19.80;;;;;;;13.63;100.00;97042.31;4994030;28;20254;-74
2022/10/08 05:29:10;;;;;;;22.07;20.37;;;;;;;13.61;100.00;97039.91;5008440;28;20190;-74
2022/10/08 05:31:36;;;;;;;20.00;18.43;;;;;;;13.65;100.00;97042.88;5007312;28;20200;-74
2022/10/08 05:34:01;;;;;;;20.63;19.03;;;;;;;13.46;100.00;97039.69;5013389;28;20183;-74
2022/10/08 05:36:29;;;;;;;21.20;19.43;;;;;;;13.48;100.00;97045.50;5013447;28;20194;-72
2022/10/08 05:38:57;;;;;;;22.60;20.50;;;;;;;13.56;100.00;97039.84;5001060;28;20287;-73
2022/10/08 05:41:26;;;;;;;20.73;18.83;;;;;;;13.50;100.00;97046.06;4993906;28;20203;-74
2022/10/08 05:43:53;;;;;;;17.87;16.13;;;;;;;13.44;100.00;97046.19;4977925;28;20203;-74
2022/10/08 05:46:19;;;;;;;17.93;16.23;;;;;;;13.48;100.00;97047.34;4975855;28;20599;-73
2022/10/08 05:48:45;;;;;;;24.13;16.33;;;;;;;13.45;100.00;97050.44;4987112;28;20194;-71
2022/10/08 05:51:15;;;;;;;17.37;15.87;;;;;;;13.42;100.00;97054.38;5012656;28;20194;-73
2022/10/08 05:53:45;;;;;;;19.33;16.37;;;;;;;13.32;100.00;97054.16;5012743;28;20187;-73
2022/10/08 05:56:12;;;;;;;17.97;15.97;;;;;;;13.33;100.00;97053.94;5013038;28;20187;-73
2022/10/08 05:58:39;;;;;;;16.67;15.17;;;;;;;13.44;100.00;97064.63;5002913;28;20188;-74
2022/10/08 06:01:08;;;;;;;19.87;14.97;;;;;;;13.53;100.00;97065.88;4993554;28;20652;-74
2022/10/08 06:03:34;;;;;;;17.20;15.43;;;;;;;13.45;100.00;97069.66;5010019;28;20196;-74
2022/10/08 06:06:05;;;;;;;21.50;19.27;;;;;;;13.49;100.00;97070.78;5016568;28;20179;-74
2022/10/08 06:08:31;;;;;;;23.27;21.17;;;;;;;13.36;100.00;97076.38;5015155;28;20177;-73
2022/10/08 06:10:57;;;;;;;22.97;20.70;;;;;;;13.41;100.00;97068.56;5016428;28;20648;-73
2022/10/08 06:13:22;;;;;;;20.70;18.77;;;;;;;13.51;100.00;97078.47;4992251;28;20246;-73
2022/10/08 06:16:03;;;;;;;19.73;17.60;;;;;;;13.50;100.00;97082.91;4996194;28;20215;-73
2022/10/08 06:18:32;;;;;;;20.00;17.90;;;;;;;13.42;100.00;97095.69;5004554;28;20195;-72
2022/10/08 06:21:04;;;;;;;16.13;13.73;;;;;;;13.55;100.00;97090.91;5016852;28;20203;-73
2022/10/08 06:23:30;;;;;;;15.50;14.30;;;;;;;13.42;100.00;97093.84;5016795;28;20190;-73
2022/10/08 06:26:00;;;;;;;16.13;14.57;;;;;;;13.41;100.00;97097.53;5013865;28;20191;-73
2022/10/08 06:28:25;;;;;;;22.60;20.83;;;;;;;13.46;100.00;97102.06;5005731;28;20186;-73
2022/10/08 06:30:51;;;;;;;25.50;23.17;;;;;;;13.46;100.00;97099.44;4999209;28;20192;-73
2022/10/08 06:33:16;;;;;;;22.30;20.10;;;;;;;13.54;100.00;97104.34;5016660;28;20660;-73
2022/10/08 06:35:41;;;;;;;16.83;12.57;;;;;;;13.59;100.00;97102.59;5014279;28;20211;-72
2022/10/08 06:38:07;;;;;;;14.33;12.30;;;;;;;13.79;100.00;97106.59;5002299;28;20539;-73
2022/10/08 06:40:38;;;;;;;17.67;15.00;;;;;;;13.77;100.00;97106.00;5007305;28;20216;-72
2022/10/08 06:43:11;;;;;;;13.43;12.03;;;;;;;13.68;100.00;97109.06;5009884;28;20290;-72
2022/10/08 06:45:38;;;;;;;11.83;10.70;;;;;;;13.71;100.00;97108.56;5015027;28;20699;-72
2022/10/08 06:48:03;;;;;;;13.67;12.00;;;;;;;13.86;100.00;97109.88;5001584;28;20684;-73
2022/10/08 06:50:28;;;;;;;16.60;15.03;;;;;;;13.98;100.00;97110.59;5015874;28;20329;-74
2022/10/08 06:52:54;;;;;;;18.97;17.43;;;;;;;13.96;100.00;97113.47;5016215;28;20183;-74
2022/10/08 06:55:19;;;;;;;18.73;16.80;;;;;;;13.99;100.00;97118.25;5016121;28;20214;-74
2022/10/08 06:57:44;;;;;;;17.73;14.70;;;;;;;13.98;100.00;97121.13;5015461;28;20655;-74
2022/10/08 07:00:10;;;;;;;22.90;20.90;;;;;;;13.99;100.00;97130.63;4997601;28;20191;-73
2022/10/08 07:02:35;;;;;;;18.53;17.07;;;;;;;13.97;100.00;97125.59;5009148;28;20628;-73
2022/10/08 07:05:01;;;;;;;18.43;16.90;;;;;;;14.12;100.00;97133.75;5015457;28;20388;-74
2022/10/08 07:07:26;;;;;;;28.53;26.20;;;;;;;14.32;100.00;97129.84;5015762;28;20190;-74
2022/10/08 07:09:51;;;;;;;26.77;24.50;;;;;;;14.35;100.00;97129.34;5000647;28;20184;-73
2022/10/08 07:12:17;;;;;;;26.07;23.10;;;;;;;14.60;100.00;97131.59;5006071;28;20239;-74
2022/10/08 07:14:42;;;;;;;16.30;15.13;;;;;;;14.50;100.00;97132.22;5012053;28;20295;-74
2022/10/08 07:17:07;;;;;;;17.73;15.97;;;;;;;14.80;100.00;97145.03;5005955;28;20197;-73
2022/10/08 07:19:33;;;;;;;17.40;16.13;;;;;;;14.80;100.00;97140.56;5003569;28;20202;-77
2022/10/08 07:21:58;;;;;;;15.27;13.67;;;;;;;14.85;100.00;97143.25;4995921;28;20207;-74
2022/10/08 07:24:23;;;;;;;35.17;32.60;;;;;;;14.97;100.00;97143.16;4996261;28;20192;-73
2022/10/08 07:26:49;;;;;;;28.73;26.73;;;;;;;14.69;100.00;97146.75;4996326;28;20227;-73
2022/10/08 07:29:15;;;;;;;16.87;15.73;;;;;;;14.74;100.00;97151.28;5005837;28;20266;-71
2022/10/08 07:31:40;;;;;;;24.53;22.73;;;;;;;14.80;100.00;97148.47;5015078;28;20291;-73
2022/10/08 07:34:09;;;;;;;35.73;33.17;;;;;;;15.48;100.00;97157.72;5005789;28;20185;-72
2022/10/08 07:36:35;;;;;;;30.40;28.07;;;;;;;14.94;100.00;97156.81;4995918;28;20207;-74
2022/10/08 07:39:06;;;;;;;29.10;27.03;;;;;;;15.05;100.00;97160.38;5005589;28;20673;-74
2022/10/08 07:41:31;;;;;;;32.43;30.20;;;;;;;15.17;100.00;97161.06;4995910;28;20199;-76
2022/10/08 07:43:59;;;;;;;21.83;20.23;;;;;;;15.35;99.30;97166.84;4995576;28;20184;-73
2022/10/08 07:46:26;;;;;;;25.50;23.57;;;;;;;15.34;98.58;97175.78;4996297;28;20240;-74
2022/10/08 07:48:55;;;;;;;15.10;13.83;;;;;;;15.27;96.77;97182.31;4979665;28;20212;-75
2022/10/08 07:51:21;;;;;;;33.37;31.17;;;;;;;15.25;95.38;97182.56;4995862;28;20532;-73
2022/10/08 07:53:46;;;;;;;32.70;30.53;;;;;;;15.35;95.49;97180.03;5014947;28;20186;-74
2022/10/08 07:56:15;;;;;;;25.30;22.60;;;;;;;15.73;88.83;97175.72;5005388;28;20219;-73
2022/10/08 07:58:40;;;;;;;14.77;13.23;;;;;;;15.23;88.51;97171.44;4995394;28;20233;-73
2022/10/08 08:01:09;;;;;;;9.50;8.70;;;;;;;15.22;90.91;97182.25;4978310;28;20316;-73
2022/10/08 08:03:35;;;;;;;10.57;8.27;;;;;;;15.56;89.11;97181.09;4995948;28;20192;-73
2022/10/08 08:06:09;;;;;;;9.00;7.07;;;;;;;15.93;87.81;97188.34;5003303;28;20190;-73
2022/10/08 08:08:36;;;;;;;10.17;6.97;;;;;;;16.71;91.18;97181.56;5014398;28;20656;-74
2022/10/08 08:11:03;;;;;;;9.33;8.10;;;;;;;16.17;85.77;97179.81;4998804;28;20192;-75
2022/10/08 08:13:30;;;;;;;12.03;11.03;;;;;;;16.80;84.67;97185.31;4991946;28;20191;-72
2022/10/08 08:15:59;;;;;;;45.03;41.57;;;;;;;16.58;81.15;97178.28;4993599;28;20190;-70
2022/10/08 08:18:29;;;;;;;30.27;28.33;;;;;;;15.39;85.92;97185.63;4998439;28;20284;-73
2022/10/08 08:21:06;;;;;;;12.00;10.50;;;;;;;15.51;87.61;97190.78;5010398;28;20211;-72
2022/10/08 08:23:34;;;;;;;12.23;11.07;;;;;;;15.48;88.29;97191.28;5014527;28;20179;-74
2022/10/08 08:26:01;;;;;;;21.77;19.67;;;;;;;15.26;89.99;97197.38;5007201;28;20263;-70
2022/10/08 08:28:27;;;;;;;15.47;14.27;;;;;;;15.33;89.56;97191.88;4994354;28;20184;-72
2022/10/08 08:30:54;;;;;;;10.33;8.97;;;;;;;15.60;87.91;97199.91;4995111;28;20324;-71
2022/10/08 08:33:20;;;;;;;13.10;8.03;;;;;;;15.65;88.88;97208.69;4994921;28;20195;-72
2022/10/08 08:35:52;;;;;;;8.30;7.13;;;;;;;15.93;89.27;97201.56;5009209;28;20187;-71
2022/10/08 08:38:18;;;;;;;9.60;7.83;;;;;;;15.89;89.49;97209.16;5014181;28;20547;-71
2022/10/08 08:40:43;;;;;;;11.40;8.57;;;;;;;15.65;90.02;97207.88;5013928;28;20313;-73
2022/10/08 08:43:08;;;;;;;14.27;10.30;;;;;;;15.80;91.34;97197.47;5013838;28;20717;-71
2022/10/08 08:45:36;;;;;;;12.07;8.97;;;;;;;15.60;88.51;97213.91;5013568;28;20266;-73
2022/10/08 08:48:22;;;;;;;10.50;9.47;;;;;;;15.32;89.33;97216.72;4997571;28;20680;-74
2022/10/08 08:50:51;;;;;;;17.27;15.80;;;;;;;15.26;86.74;97215.06;4974555;28;20211;-71
2022/10/08 08:53:18;;;;;;;16.97;15.17;;;;;;;15.07;86.79;97211.09;4983152;28;20227;-72
2022/10/08 08:55:52;;;;;;;9.70;8.40;;;;;;;15.56;84.53;97222.56;4996415;28;20199;-71
2022/10/08 08:58:36;;;;;;;10.17;5.63;;;;;;;15.65;81.47;97221.09;4997515;28;20175;-71
2022/10/08 09:01:45;;;;;;;16.50;14.93;;;;;;;15.19;79.62;97217.88;4999717;28;20298;-71
2022/10/08 09:04:15;;;;;;;9.53;8.47;;;;;;;15.17;79.18;97217.31;5000002;28;20185;-72
2022/10/08 09:06:42;;;;;;;34.13;31.77;;;;;;;15.21;76.66;97218.41;5000019;28;20648;-74
2022/10/08 09:09:19;;;;;;;24.20;22.40;;;;;;;15.48;75.45;97209.78;4993921;28;20207;-73
2022/10/08 09:11:44;;;;;;;61.43;57.00;;;;;;;15.48;75.47;97221.13;4991560;28;20189;-74
2022/10/08 09:14:13;;;;;;;41.13;38.40;;;;;;;15.70;75.84;97216.66;4974676;28;20268;-75
2022/10/08 09:16:39;;;;;;;36.03;33.23;;;;;;;16.19;73.83;97216.59;4993648;28;20234;-73
2022/10/08 09:19:04;;;;;;;67.20;63.03;;;;;;;16.41;79.03;97206.72;4994430;28;20188;-75
2022/10/08 09:21:32;;;;;;;24.97;23.30;;;;;;;15.68;73.04;97215.31;4994161;28;20652;-74
2022/10/08 09:23:58;;;;;;;16.63;15.40;;;;;;;15.76;71.84;97218.31;4994380;28;20263;-74
